sensor_id;sensor_type;location;lat;lon;timestamp;P1;durP1;ratioP1;P2;durP2;ratioP2
77055;SDS011;67471;44.918;8.614;2024-01-11T00:02:23;17.45;;;9.73;;
77055;SDS011;67471;44.918;8.614;2024-01-11T00:05:26;17.58;;;10.70;;
77055;SDS011;67471;44.918;8.614;2024-01-11T00:08:30;19.60;;;10.35;;
77055;SDS011;67471;44.918;8.614;2024-01-11T00:11:34;29.38;;;12.00;;
77055;SDS011;67471;44.918;8.614;2024-01-11T00:14:37;19.30;;;10.15;;
77055;SDS011;67471;44.918;8.614;2024-01-11T00:17:41;19.83;;;11.10;;
77055;SDS011;67471;44.918;8.614;2024-01-11T00:20:45;21.70;;;11.50;;
77055;SDS011;67471;44.918;8.614;2024-01-11T00:23:49;20.08;;;10.65;;
77055;SDS011;67471;44.918;8.614;2024-01-11T00:26:53;23.20;;;11.95;;
77055;SDS011;67471;44.918;8.614;2024-01-11T00:29:56;23.23;;;12.15;;
77055;SDS011;67471;44.918;8.614;2024-01-11T00:33:00;19.60;;;10.23;;
77055;SDS011;67471;44.918;8.614;2024-01-11T00:36:04;18.67;;;11.00;;
77055;SDS011;67471;44.918;8.614;2024-01-11T00:39:08;19.40;;;11.40;;
77055;SDS011;67471;44.918;8.614;2024-01-11T00:42:12;22.75;;;11.45;;
77055;SDS011;67471;44.918;8.614;2024-01-11T00:45:15;17.65;;;9.75;;
77055;SDS011;67471;44.918;8.614;2024-01-11T00:48:19;19.88;;;10.45;;
77055;SDS011;67471;44.918;8.614;2024-01-11T00:51:23;19.98;;;11.38;;
77055;SDS011;67471;44.918;8.614;2024-01-11T00:54:27;19.98;;;10.10;;
77055;SDS011;67471;44.918;8.614;2024-01-11T00:57:31;18.52;;;10.45;;
77055;SDS011;67471;44.918;8.614;2024-01-11T01:00:35;21.80;;;11.85;;
77055;SDS011;67471;44.918;8.614;2024-01-11T01:03:39;22.85;;;12.00;;
77055;SDS011;67471;44.918;8.614;2024-01-11T01:06:43;19.80;;;11.13;;
77055;SDS011;67471;44.918;8.614;2024-01-11T01:09:47;18.60;;;9.52;;
77055;SDS011;67471;44.918;8.614;2024-01-11T01:12:51;18.80;;;10.20;;
77055;SDS011;67471;44.918;8.614;2024-01-11T01:15:55;20.10;;;11.10;;
77055;SDS011;67471;44.918;8.614;2024-01-11T01:18:58;22.55;;;10.93;;
77055;SDS011;67471;44.918;8.614;2024-01-11T01:22:02;18.58;;;10.77;;
77055;SDS011;67471;44.918;8.614;2024-01-11T01:25:06;23.00;;;10.98;;
77055;SDS011;67471;44.918;8.614;2024-01-11T01:28:10;21.95;;;10.93;;
77055;SDS011;67471;44.918;8.614;2024-01-11T01:31:14;21.88;;;11.20;;
77055;SDS011;67471;44.918;8.614;2024-01-11T01:34:18;19.75;;;10.68;;
77055;SDS011;67471;44.918;8.614;2024-01-11T01:37:22;19.67;;;11.68;;
77055;SDS011;67471;44.918;8.614;2024-01-11T01:40:26;24.25;;;12.23;;
77055;SDS011;67471;44.918;8.614;2024-01-11T01:43:30;22.25;;;12.75;;
77055;SDS011;67471;44.918;8.614;2024-01-11T01:46:34;23.02;;;12.73;;
77055;SDS011;67471;44.918;8.614;2024-01-11T01:49:38;19.60;;;10.88;;
77055;SDS011;67471;44.918;8.614;2024-01-11T01:52:42;24.40;;;12.18;;
77055;SDS011;67471;44.918;8.614;2024-01-11T01:55:47;21.00;;;13.25;;
77055;SDS011;67471;44.918;8.614;2024-01-11T01:58:51;25.83;;;14.23;;
77055;SDS011;67471;44.918;8.614;2024-01-11T02:01:57;22.77;;;14.20;;
77055;SDS011;67471;44.918;8.614;2024-01-11T02:05:02;27.77;;;14.65;;
77055;SDS011;67471;44.918;8.614;2024-01-11T02:08:06;25.50;;;13.95;;
77055;SDS011;67471;44.918;8.614;2024-01-11T02:11:11;27.40;;;13.15;;
77055;SDS011;67471;44.918;8.614;2024-01-11T02:14:15;23.38;;;13.15;;
77055;SDS011;67471;44.918;8.614;2024-01-11T02:17:19;23.70;;;14.65;;
77055;SDS011;67471;44.918;8.614;2024-01-11T02:20:22;25.00;;;13.73;;
77055;SDS011;67471;44.918;8.614;2024-01-11T02:23:26;31.83;;;14.38;;
77055;SDS011;67471;44.918;8.614;2024-01-11T02:26:31;25.83;;;13.80;;
77055;SDS011;67471;44.918;8.614;2024-01-11T02:29:35;29.52;;;14.13;;
77055;SDS011;67471;44.918;8.614;2024-01-11T02:32:38;30.38;;;13.60;;
77055;SDS011;67471;44.918;8.614;2024-01-11T02:35:42;30.13;;;15.55;;
77055;SDS011;67471;44.918;8.614;2024-01-11T02:38:46;33.97;;;19.88;;
77055;SDS011;67471;44.918;8.614;2024-01-11T02:41:51;30.42;;;15.82;;
77055;SDS011;67471;44.918;8.614;2024-01-11T02:45:02;36.83;;;21.17;;
77055;SDS011;67471;44.918;8.614;2024-01-11T02:48:06;30.88;;;17.10;;
77055;SDS011;67471;44.918;8.614;2024-01-11T02:51:10;30.48;;;16.45;;
77055;SDS011;67471;44.918;8.614;2024-01-11T02:54:14;30.08;;;14.05;;
77055;SDS011;67471;44.918;8.614;2024-01-11T02:57:17;27.67;;;15.23;;
77055;SDS011;67471;44.918;8.614;2024-01-11T03:00:21;27.83;;;14.75;;
77055;SDS011;67471;44.918;8.614;2024-01-11T03:03:25;28.58;;;15.00;;
77055;SDS011;67471;44.918;8.614;2024-01-11T03:06:28;25.45;;;14.95;;
77055;SDS011;67471;44.918;8.614;2024-01-11T03:09:31;29.00;;;15.23;;
77055;SDS011;67471;44.918;8.614;2024-01-11T03:12:35;24.50;;;13.38;;
77055;SDS011;67471;44.918;8.614;2024-01-11T03:15:39;26.23;;;14.45;;
77055;SDS011;67471;44.918;8.614;2024-01-11T03:18:43;29.40;;;14.40;;
77055;SDS011;67471;44.918;8.614;2024-01-11T03:21:47;28.13;;;14.85;;
77055;SDS011;67471;44.918;8.614;2024-01-11T03:24:50;28.73;;;14.27;;
77055;SDS011;67471;44.918;8.614;2024-01-11T03:27:54;28.25;;;14.30;;
77055;SDS011;67471;44.918;8.614;2024-01-11T03:30:57;28.52;;;15.57;;
77055;SDS011;67471;44.918;8.614;2024-01-11T03:34:01;27.27;;;14.55;;
77055;SDS011;67471;44.918;8.614;2024-01-11T03:37:05;26.98;;;15.23;;
77055;SDS011;67471;44.918;8.614;2024-01-11T03:40:09;26.70;;;14.35;;
77055;SDS011;67471;44.918;8.614;2024-01-11T03:43:16;26.55;;;15.10;;
77055;SDS011;67471;44.918;8.614;2024-01-11T03:46:20;30.85;;;14.82;;
77055;SDS011;67471;44.918;8.614;2024-01-11T03:49:24;28.73;;;14.70;;
77055;SDS011;67471;44.918;8.614;2024-01-11T03:52:28;24.60;;;14.48;;
77055;SDS011;67471;44.918;8.614;2024-01-11T03:55:32;22.15;;;12.27;;
77055;SDS011;67471;44.918;8.614;2024-01-11T03:58:36;28.80;;;12.88;;
77055;SDS011;67471;44.918;8.614;2024-01-11T04:01:42;24.20;;;13.15;;
77055;SDS011;67471;44.918;8.614;2024-01-11T04:04:45;26.27;;;13.05;;
77055;SDS011;67471;44.918;8.614;2024-01-11T04:07:49;24.45;;;13.45;;
77055;SDS011;67471;44.918;8.614;2024-01-11T04:10:53;26.27;;;14.00;;
77055;SDS011;67471;44.918;8.614;2024-01-11T04:13:57;25.60;;;13.25;;
77055;SDS011;67471;44.918;8.614;2024-01-11T04:17:00;26.35;;;13.75;;
77055;SDS011;67471;44.918;8.614;2024-01-11T04:20:04;29.00;;;14.07;;
77055;SDS011;67471;44.918;8.614;2024-01-11T04:23:09;22.08;;;12.48;;
77055;SDS011;67471;44.918;8.614;2024-01-11T04:26:13;26.58;;;12.73;;
77055;SDS011;67471;44.918;8.614;2024-01-11T04:29:17;24.45;;;13.80;;
77055;SDS011;67471;44.918;8.614;2024-01-11T04:32:21;24.58;;;13.65;;
77055;SDS011;67471;44.918;8.614;2024-01-11T04:35:25;28.02;;;13.95;;
77055;SDS011;67471;44.918;8.614;2024-01-11T04:38:29;25.70;;;13.68;;
77055;SDS011;67471;44.918;8.614;2024-01-11T04:41:34;25.75;;;12.75;;
77055;SDS011;67471;44.918;8.614;2024-01-11T04:44:39;24.13;;;12.15;;
77055;SDS011;67471;44.918;8.614;2024-01-11T04:47:43;22.77;;;12.82;;
77055;SDS011;67471;44.918;8.614;2024-01-11T04:50:47;23.92;;;13.18;;
77055;SDS011;67471;44.918;8.614;2024-01-11T04:53:50;25.95;;;13.27;;
77055;SDS011;67471;44.918;8.614;2024-01-11T04:56:54;22.35;;;12.02;;
77055;SDS011;67471;44.918;8.614;2024-01-11T04:59:58;26.23;;;13.80;;
77055;SDS011;67471;44.918;8.614;2024-01-11T05:03:01;29.75;;;13.50;;
77055;SDS011;67471;44.918;8.614;2024-01-11T05:06:05;27.15;;;13.02;;
77055;SDS011;67471;44.918;8.614;2024-01-11T05:09:09;28.42;;;13.80;;
77055;SDS011;67471;44.918;8.614;2024-01-11T05:12:13;25.55;;;12.93;;
77055;SDS011;67471;44.918;8.614;2024-01-11T05:15:16;22.85;;;12.75;;
77055;SDS011;67471;44.918;8.614;2024-01-11T05:18:20;25.25;;;13.35;;
77055;SDS011;67471;44.918;8.614;2024-01-11T05:21:24;28.10;;;14.43;;
77055;SDS011;67471;44.918;8.614;2024-01-11T05:24:28;24.50;;;12.48;;
77055;SDS011;67471;44.918;8.614;2024-01-11T05:27:32;24.88;;;13.45;;
77055;SDS011;67471;44.918;8.614;2024-01-11T05:30:35;28.35;;;14.15;;
77055;SDS011;67471;44.918;8.614;2024-01-11T05:33:39;21.63;;;12.55;;
77055;SDS011;67471;44.918;8.614;2024-01-11T05:36:43;26.50;;;14.55;;
77055;SDS011;67471;44.918;8.614;2024-01-11T05:39:47;31.13;;;14.55;;
77055;SDS011;67471;44.918;8.614;2024-01-11T05:42:51;35.10;;;18.38;;
77055;SDS011;67471;44.918;8.614;2024-01-11T05:45:55;30.20;;;17.38;;
77055;SDS011;67471;44.918;8.614;2024-01-11T05:48:59;32.60;;;16.48;;
77055;SDS011;67471;44.918;8.614;2024-01-11T05:52:02;31.75;;;16.48;;
77055;SDS011;67471;44.918;8.614;2024-01-11T05:55:06;28.42;;;15.38;;
77055;SDS011;67471;44.918;8.614;2024-01-11T05:58:10;29.60;;;15.23;;
77055;SDS011;67471;44.918;8.614;2024-01-11T06:01:14;28.52;;;15.43;;
77055;SDS011;67471;44.918;8.614;2024-01-11T06:04:18;28.15;;;14.90;;
77055;SDS011;67471;44.918;8.614;2024-01-11T06:07:21;30.35;;;15.00;;
77055;SDS011;67471;44.918;8.614;2024-01-11T06:10:25;31.20;;;16.65;;
77055;SDS011;67471;44.918;8.614;2024-01-11T06:13:29;31.38;;;16.33;;
77055;SDS011;67471;44.918;8.614;2024-01-11T06:16:33;30.98;;;16.27;;
77055;SDS011;67471;44.918;8.614;2024-01-11T06:19:37;30.13;;;16.25;;
77055;SDS011;67471;44.918;8.614;2024-01-11T06:22:41;27.35;;;14.85;;
77055;SDS011;67471;44.918;8.614;2024-01-11T06:25:45;27.92;;;15.50;;
77055;SDS011;67471;44.918;8.614;2024-01-11T06:28:49;35.33;;;16.15;;
77055;SDS011;67471;44.918;8.614;2024-01-11T06:31:53;31.05;;;15.85;;
77055;SDS011;67471;44.918;8.614;2024-01-11T06:34:57;29.95;;;15.07;;
77055;SDS011;67471;44.918;8.614;2024-01-11T06:38:00;25.50;;;14.52;;
77055;SDS011;67471;44.918;8.614;2024-01-11T06:41:04;25.98;;;15.35;;
77055;SDS011;67471;44.918;8.614;2024-01-11T06:44:08;34.00;;;15.85;;
77055;SDS011;67471;44.918;8.614;2024-01-11T06:47:12;34.47;;;17.02;;
77055;SDS011;67471;44.918;8.614;2024-01-11T06:50:16;28.45;;;15.48;;
77055;SDS011;67471;44.918;8.614;2024-01-11T06:53:19;32.30;;;16.40;;
77055;SDS011;67471;44.918;8.614;2024-01-11T06:56:23;35.30;;;17.58;;
77055;SDS011;67471;44.918;8.614;2024-01-11T06:59:27;33.33;;;15.63;;
77055;SDS011;67471;44.918;8.614;2024-01-11T07:02:31;29.88;;;15.88;;
77055;SDS011;67471;44.918;8.614;2024-01-11T07:05:35;33.88;;;16.75;;
77055;SDS011;67471;44.918;8.614;2024-01-11T07:08:39;29.92;;;15.80;;
77055;SDS011;67471;44.918;8.614;2024-01-11T07:11:43;30.25;;;15.98;;
77055;SDS011;67471;44.918;8.614;2024-01-11T07:14:47;27.35;;;15.82;;
77055;SDS011;67471;44.918;8.614;2024-01-11T07:17:51;26.45;;;14.70;;
77055;SDS011;67471;44.918;8.614;2024-01-11T07:20:57;30.88;;;16.52;;
77055;SDS011;67471;44.918;8.614;2024-01-11T07:24:03;27.17;;;15.68;;
77055;SDS011;67471;44.918;8.614;2024-01-11T07:27:07;29.42;;;15.82;;
77055;SDS011;67471;44.918;8.614;2024-01-11T07:30:11;32.08;;;16.55;;
77055;SDS011;67471;44.918;8.614;2024-01-11T07:33:14;36.65;;;18.92;;
77055;SDS011;67471;44.918;8.614;2024-01-11T07:36:18;38.15;;;18.33;;
77055;SDS011;67471;44.918;8.614;2024-01-11T07:39:22;32.03;;;17.48;;
77055;SDS011;67471;44.918;8.614;2024-01-11T07:42:26;30.17;;;16.55;;
77055;SDS011;67471;44.918;8.614;2024-01-11T07:45:30;30.70;;;16.08;;
77055;SDS011;67471;44.918;8.614;2024-01-11T07:48:34;29.50;;;16.15;;
77055;SDS011;67471;44.918;8.614;2024-01-11T07:51:38;30.88;;;15.40;;
77055;SDS011;67471;44.918;8.614;2024-01-11T07:54:42;28.85;;;17.55;;
77055;SDS011;67471;44.918;8.614;2024-01-11T07:57:46;30.58;;;17.52;;
77055;SDS011;67471;44.918;8.614;2024-01-11T08:00:49;33.00;;;17.15;;
77055;SDS011;67471;44.918;8.614;2024-01-11T08:03:53;29.63;;;16.48;;
77055;SDS011;67471;44.918;8.614;2024-01-11T08:06:57;25.52;;;15.98;;
77055;SDS011;67471;44.918;8.614;2024-01-11T08:10:05;25.48;;;16.70;;
77055;SDS011;67471;44.918;8.614;2024-01-11T08:13:09;30.05;;;16.48;;
77055;SDS011;67471;44.918;8.614;2024-01-11T08:16:16;25.67;;;17.35;;
77055;SDS011;67471;44.918;8.614;2024-01-11T08:19:20;30.00;;;16.30;;
77055;SDS011;67471;44.918;8.614;2024-01-11T08:22:24;29.98;;;16.95;;
77055;SDS011;67471;44.918;8.614;2024-01-11T08:25:28;27.92;;;17.40;;
77055;SDS011;67471;44.918;8.614;2024-01-11T08:28:32;25.10;;;16.55;;
77055;SDS011;67471;44.918;8.614;2024-01-11T08:31:36;31.25;;;18.00;;
77055;SDS011;67471;44.918;8.614;2024-01-11T08:34:40;25.92;;;17.02;;
77055;SDS011;67471;44.918;8.614;2024-01-11T08:37:44;26.75;;;17.67;;
77055;SDS011;67471;44.918;8.614;2024-01-11T08:40:47;23.52;;;17.42;;
77055;SDS011;67471;44.918;8.614;2024-01-11T08:43:51;32.42;;;20.60;;
77055;SDS011;67471;44.918;8.614;2024-01-11T08:46:56;26.80;;;18.08;;
77055;SDS011;67471;44.918;8.614;2024-01-11T08:50:03;26.60;;;17.75;;
77055;SDS011;67471;44.918;8.614;2024-01-11T08:53:09;29.30;;;18.40;;
77055;SDS011;67471;44.918;8.614;2024-01-11T08:56:12;26.60;;;17.60;;
77055;SDS011;67471;44.918;8.614;2024-01-11T08:59:17;24.27;;;17.60;;
77055;SDS011;67471;44.918;8.614;2024-01-11T09:02:20;24.10;;;16.60;;
77055;SDS011;67471;44.918;8.614;2024-01-11T09:05:24;25.38;;;18.30;;
77055;SDS011;67471;44.918;8.614;2024-01-11T09:08:28;30.45;;;17.75;;
77055;SDS011;67471;44.918;8.614;2024-01-11T09:11:33;25.35;;;18.25;;
77055;SDS011;67471;44.918;8.614;2024-01-11T09:14:37;25.40;;;17.42;;
77055;SDS011;67471;44.918;8.614;2024-01-11T09:17:40;25.52;;;16.48;;
77055;SDS011;67471;44.918;8.614;2024-01-11T09:20:44;23.95;;;16.55;;
77055;SDS011;67471;44.918;8.614;2024-01-11T09:23:48;25.73;;;16.88;;
77055;SDS011;67471;44.918;8.614;2024-01-11T09:26:52;23.65;;;16.63;;
77055;SDS011;67471;44.918;8.614;2024-01-11T09:29:55;27.83;;;18.75;;
77055;SDS011;67471;44.918;8.614;2024-01-11T09:32:59;26.10;;;17.52;;
77055;SDS011;67471;44.918;8.614;2024-01-11T09:36:03;28.30;;;18.17;;
77055;SDS011;67471;44.918;8.614;2024-01-11T09:39:07;24.52;;;17.05;;
77055;SDS011;67471;44.918;8.614;2024-01-11T09:42:11;30.50;;;19.05;;
77055;SDS011;67471;44.918;8.614;2024-01-11T09:45:16;33.45;;;20.90;;
77055;SDS011;67471;44.918;8.614;2024-01-11T09:48:20;29.15;;;18.00;;
77055;SDS011;67471;44.918;8.614;2024-01-11T09:51:24;29.90;;;19.05;;
77055;SDS011;67471;44.918;8.614;2024-01-11T09:54:29;26.10;;;18.45;;
77055;SDS011;67471;44.918;8.614;2024-01-11T09:57:33;28.02;;;19.40;;
77055;SDS011;67471;44.918;8.614;2024-01-11T10:00:40;30.33;;;19.73;;
77055;SDS011;67471;44.918;8.614;2024-01-11T10:03:44;28.13;;;18.15;;
77055;SDS011;67471;44.918;8.614;2024-01-11T10:06:51;32.38;;;21.25;;
77055;SDS011;67471;44.918;8.614;2024-01-11T10:09:57;29.45;;;20.38;;
77055;SDS011;67471;44.918;8.614;2024-01-11T10:13:01;31.65;;;21.05;;
77055;SDS011;67471;44.918;8.614;2024-01-11T10:16:08;34.85;;;20.35;;
77055;SDS011;67471;44.918;8.614;2024-01-11T10:19:12;38.03;;;24.30;;
77055;SDS011;67471;44.918;8.614;2024-01-11T10:22:18;36.55;;;23.38;;
77055;SDS011;67471;44.918;8.614;2024-01-11T10:25:24;41.28;;;24.40;;
77055;SDS011;67471;44.918;8.614;2024-01-11T10:28:28;41.13;;;23.88;;
77055;SDS011;67471;44.918;8.614;2024-01-11T10:31:31;33.22;;;21.00;;
77055;SDS011;67471;44.918;8.614;2024-01-11T10:34:37;33.28;;;20.02;;
77055;SDS011;67471;44.918;8.614;2024-01-11T10:37:44;33.55;;;20.23;;
77055;SDS011;67471;44.918;8.614;2024-01-11T10:40:48;33.45;;;19.80;;
77055;SDS011;67471;44.918;8.614;2024-01-11T10:43:52;35.05;;;20.85;;
77055;SDS011;67471;44.918;8.614;2024-01-11T10:46:59;30.23;;;18.63;;
77055;SDS011;67471;44.918;8.614;2024-01-11T10:50:05;32.42;;;20.08;;
77055;SDS011;67471;44.918;8.614;2024-01-11T10:56:42;32.20;;;20.67;;
77055;SDS011;67471;44.918;8.614;2024-01-11T10:59:46;30.98;;;19.13;;
77055;SDS011;67471;44.918;8.614;2024-01-11T11:02:52;30.83;;;17.52;;
77055;SDS011;67471;44.918;8.614;2024-01-11T11:05:58;29.88;;;17.67;;
77055;SDS011;67471;44.918;8.614;2024-01-11T11:09:04;26.02;;;16.02;;
77055;SDS011;67471;44.918;8.614;2024-01-11T11:12:09;31.25;;;17.17;;
77055;SDS011;67471;44.918;8.614;2024-01-11T11:15:14;28.48;;;17.70;;
77055;SDS011;67471;44.918;8.614;2024-01-11T11:18:18;30.00;;;16.75;;
77055;SDS011;67471;44.918;8.614;2024-01-11T11:21:22;25.95;;;17.15;;
77055;SDS011;67471;44.918;8.614;2024-01-11T11:24:28;27.52;;;15.90;;
77055;SDS011;67471;44.918;8.614;2024-01-11T11:27:32;24.63;;;15.63;;
77055;SDS011;67471;44.918;8.614;2024-01-11T11:30:39;26.15;;;16.50;;
77055;SDS011;67471;44.918;8.614;2024-01-11T11:33:45;26.40;;;16.33;;
77055;SDS011;67471;44.918;8.614;2024-01-11T11:36:53;27.83;;;15.67;;
77055;SDS011;67471;44.918;8.614;2024-01-11T11:39:59;25.42;;;15.25;;
77055;SDS011;67471;44.918;8.614;2024-01-11T11:43:04;27.38;;;16.17;;
77055;SDS011;67471;44.918;8.614;2024-01-11T11:46:08;21.92;;;15.25;;
77055;SDS011;67471;44.918;8.614;2024-01-11T11:49:12;23.70;;;15.20;;
77055;SDS011;67471;44.918;8.614;2024-01-11T11:52:17;24.23;;;14.43;;
77055;SDS011;67471;44.918;8.614;2024-01-11T11:55:21;27.17;;;14.80;;
77055;SDS011;67471;44.918;8.614;2024-01-11T11:58:27;24.13;;;14.98;;
77055;SDS011;67471;44.918;8.614;2024-01-11T12:01:31;23.10;;;15.18;;
77055;SDS011;67471;44.918;8.614;2024-01-11T12:04:38;27.40;;;14.65;;
77055;SDS011;67471;44.918;8.614;2024-01-11T12:07:42;23.73;;;15.23;;
77055;SDS011;67471;44.918;8.614;2024-01-11T12:10:46;26.80;;;16.35;;
77055;SDS011;67471;44.918;8.614;2024-01-11T12:13:50;23.98;;;15.50;;
77055;SDS011;67471;44.918;8.614;2024-01-11T12:16:59;25.33;;;14.60;;
77055;SDS011;67471;44.918;8.614;2024-01-11T12:20:05;25.98;;;15.38;;
77055;SDS011;67471;44.918;8.614;2024-01-11T12:23:09;23.58;;;13.80;;
77055;SDS011;67471;44.918;8.614;2024-01-11T12:26:13;26.00;;;13.25;;
77055;SDS011;67471;44.918;8.614;2024-01-11T12:29:18;28.70;;;16.95;;
77055;SDS011;67471;44.918;8.614;2024-01-11T12:32:22;27.15;;;15.18;;
77055;SDS011;67471;44.918;8.614;2024-01-11T12:35:25;25.58;;;14.40;;
77055;SDS011;67471;44.918;8.614;2024-01-11T12:38:29;24.02;;;15.18;;
77055;SDS011;67471;44.918;8.614;2024-01-11T12:41:33;26.55;;;14.35;;
77055;SDS011;67471;44.918;8.614;2024-01-11T12:44:37;22.98;;;13.85;;
77055;SDS011;67471;44.918;8.614;2024-01-11T12:47:43;20.95;;;13.80;;
77055;SDS011;67471;44.918;8.614;2024-01-11T12:50:47;22.63;;;14.32;;
77055;SDS011;67471;44.918;8.614;2024-01-11T12:53:51;24.98;;;14.35;;
77055;SDS011;67471;44.918;8.614;2024-01-11T12:56:56;26.08;;;14.65;;
77055;SDS011;67471;44.918;8.614;2024-01-11T13:00:10;22.23;;;14.63;;
77055;SDS011;67471;44.918;8.614;2024-01-11T13:03:14;22.23;;;13.63;;
77055;SDS011;67471;44.918;8.614;2024-01-11T13:06:18;25.48;;;14.73;;
77055;SDS011;67471;44.918;8.614;2024-01-11T13:09:23;23.52;;;14.70;;
77055;SDS011;67471;44.918;8.614;2024-01-11T13:12:26;25.98;;;15.57;;
77055;SDS011;67471;44.918;8.614;2024-01-11T13:15:31;24.90;;;14.35;;
77055;SDS011;67471;44.918;8.614;2024-01-11T13:18:37;25.55;;;15.32;;
77055;SDS011;67471;44.918;8.614;2024-01-11T13:21:41;22.38;;;14.60;;
77055;SDS011;67471;44.918;8.614;2024-01-11T13:24:45;24.90;;;16.15;;
77055;SDS011;67471;44.918;8.614;2024-01-11T13:27:48;23.65;;;15.13;;
77055;SDS011;67471;44.918;8.614;2024-01-11T13:30:52;26.05;;;15.98;;
77055;SDS011;67471;44.918;8.614;2024-01-11T13:33:56;28.27;;;16.17;;
77055;SDS011;67471;44.918;8.614;2024-01-11T13:37:00;27.25;;;16.17;;
77055;SDS011;67471;44.918;8.614;2024-01-11T13:40:04;27.73;;;16.80;;
77055;SDS011;67471;44.918;8.614;2024-01-11T13:43:08;24.50;;;15.52;;
77055;SDS011;67471;44.918;8.614;2024-01-11T13:46:12;25.88;;;15.10;;
77055;SDS011;67471;44.918;8.614;2024-01-11T13:49:19;26.65;;;15.63;;
77055;SDS011;67471;44.918;8.614;2024-01-11T13:52:25;26.88;;;15.73;;
77055;SDS011;67471;44.918;8.614;2024-01-11T13:55:30;26.25;;;16.58;;
77055;SDS011;67471;44.918;8.614;2024-01-11T13:58:40;26.08;;;15.32;;
77055;SDS011;67471;44.918;8.614;2024-01-11T14:01:44;30.30;;;17.38;;
77055;SDS011;67471;44.918;8.614;2024-01-11T14:04:48;28.15;;;17.15;;
77055;SDS011;67471;44.918;8.614;2024-01-11T14:07:52;30.38;;;16.00;;
77055;SDS011;67471;44.918;8.614;2024-01-11T14:11:01;29.08;;;17.33;;
77055;SDS011;67471;44.918;8.614;2024-01-11T14:14:05;27.08;;;15.82;;
77055;SDS011;67471;44.918;8.614;2024-01-11T14:17:09;26.73;;;16.15;;
77055;SDS011;67471;44.918;8.614;2024-01-11T14:20:12;26.23;;;15.38;;
77055;SDS011;67471;44.918;8.614;2024-01-11T14:23:17;24.80;;;15.18;;
77055;SDS011;67471;44.918;8.614;2024-01-11T14:26:20;28.17;;;15.85;;
77055;SDS011;67471;44.918;8.614;2024-01-11T14:29:25;30.75;;;15.60;;
77055;SDS011;67471;44.918;8.614;2024-01-11T14:32:29;24.17;;;14.55;;
77055;SDS011;67471;44.918;8.614;2024-01-11T14:35:33;27.20;;;15.20;;
77055;SDS011;67471;44.918;8.614;2024-01-11T14:38:37;25.92;;;14.70;;
77055;SDS011;67471;44.918;8.614;2024-01-11T14:41:41;27.50;;;16.00;;
77055;SDS011;67471;44.918;8.614;2024-01-11T14:44:44;27.52;;;15.93;;
77055;SDS011;67471;44.918;8.614;2024-01-11T14:47:48;26.10;;;14.73;;
77055;SDS011;67471;44.918;8.614;2024-01-11T14:50:52;25.92;;;15.40;;
77055;SDS011;67471;44.918;8.614;2024-01-11T14:53:56;29.20;;;15.85;;
77055;SDS011;67471;44.918;8.614;2024-01-11T14:56:59;24.98;;;14.73;;
77055;SDS011;67471;44.918;8.614;2024-01-11T15:00:04;24.70;;;15.35;;
77055;SDS011;67471;44.918;8.614;2024-01-11T15:03:08;24.55;;;14.43;;
77055;SDS011;67471;44.918;8.614;2024-01-11T15:06:11;27.20;;;14.68;;
77055;SDS011;67471;44.918;8.614;2024-01-11T15:09:15;26.92;;;15.82;;
77055;SDS011;67471;44.918;8.614;2024-01-11T15:12:20;26.23;;;14.65;;
77055;SDS011;67471;44.918;8.614;2024-01-11T15:15:25;27.35;;;15.13;;
77055;SDS011;67471;44.918;8.614;2024-01-11T15:18:29;26.02;;;15.15;;
77055;SDS011;67471;44.918;8.614;2024-01-11T15:21:32;25.00;;;13.60;;
77055;SDS011;67471;44.918;8.614;2024-01-11T15:24:36;26.73;;;15.52;;
77055;SDS011;67471;44.918;8.614;2024-01-11T15:27:40;29.77;;;15.57;;
77055;SDS011;67471;44.918;8.614;2024-01-11T15:30:44;26.58;;;14.80;;
77055;SDS011;67471;44.918;8.614;2024-01-11T15:33:48;27.30;;;14.65;;
77055;SDS011;67471;44.918;8.614;2024-01-11T15:36:52;28.60;;;14.95;;
77055;SDS011;67471;44.918;8.614;2024-01-11T15:39:56;29.00;;;15.57;;
77055;SDS011;67471;44.918;8.614;2024-01-11T15:43:00;27.30;;;14.65;;
77055;SDS011;67471;44.918;8.614;2024-01-11T15:46:04;29.77;;;16.70;;
77055;SDS011;67471;44.918;8.614;2024-01-11T15:49:08;32.13;;;17.13;;
77055;SDS011;67471;44.918;8.614;2024-01-11T15:52:12;35.50;;;15.95;;
77055;SDS011;67471;44.918;8.614;2024-01-11T15:55:15;32.45;;;17.00;;
77055;SDS011;67471;44.918;8.614;2024-01-11T15:58:20;29.63;;;16.02;;
77055;SDS011;67471;44.918;8.614;2024-01-11T16:01:24;31.00;;;16.65;;
77055;SDS011;67471;44.918;8.614;2024-01-11T16:04:27;32.95;;;17.23;;
77055;SDS011;67471;44.918;8.614;2024-01-11T16:07:38;33.40;;;17.15;;
77055;SDS011;67471;44.918;8.614;2024-01-11T16:10:42;29.15;;;15.93;;
77055;SDS011;67471;44.918;8.614;2024-01-11T16:13:46;32.70;;;18.05;;
77055;SDS011;67471;44.918;8.614;2024-01-11T16:16:51;31.77;;;16.95;;
77055;SDS011;67471;44.918;8.614;2024-01-11T16:19:55;36.40;;;18.30;;
77055;SDS011;67471;44.918;8.614;2024-01-11T16:22:59;32.35;;;17.27;;
77055;SDS011;67471;44.918;8.614;2024-01-11T16:26:03;32.30;;;16.95;;
77055;SDS011;67471;44.918;8.614;2024-01-11T16:29:09;34.53;;;17.05;;
77055;SDS011;67471;44.918;8.614;2024-01-11T16:32:13;38.47;;;17.58;;
77055;SDS011;67471;44.918;8.614;2024-01-11T16:35:18;35.60;;;17.75;;
77055;SDS011;67471;44.918;8.614;2024-01-11T16:38:22;36.10;;;19.35;;
77055;SDS011;67471;44.918;8.614;2024-01-11T16:41:26;32.75;;;17.92;;
77055;SDS011;67471;44.918;8.614;2024-01-11T16:44:30;33.30;;;18.80;;
77055;SDS011;67471;44.918;8.614;2024-01-11T16:47:33;41.58;;;19.70;;
77055;SDS011;67471;44.918;8.614;2024-01-11T16:50:39;35.70;;;18.60;;
77055;SDS011;67471;44.918;8.614;2024-01-11T16:53:43;35.15;;;19.00;;
77055;SDS011;67471;44.918;8.614;2024-01-11T16:56:46;34.65;;;18.85;;
77055;SDS011;67471;44.918;8.614;2024-01-11T16:59:51;38.15;;;20.05;;
77055;SDS011;67471;44.918;8.614;2024-01-11T17:02:54;42.55;;;21.52;;
77055;SDS011;67471;44.918;8.614;2024-01-11T17:05:58;43.95;;;22.90;;
77055;SDS011;67471;44.918;8.614;2024-01-11T17:09:02;34.03;;;21.00;;
77055;SDS011;67471;44.918;8.614;2024-01-11T17:12:06;36.67;;;19.13;;
77055;SDS011;67471;44.918;8.614;2024-01-11T17:15:10;41.67;;;20.20;;
77055;SDS011;67471;44.918;8.614;2024-01-11T17:18:14;36.10;;;20.55;;
77055;SDS011;67471;44.918;8.614;2024-01-11T17:21:18;42.70;;;22.50;;
77055;SDS011;67471;44.918;8.614;2024-01-11T17:24:22;36.58;;;18.85;;
77055;SDS011;67471;44.918;8.614;2024-01-11T17:27:26;35.28;;;19.98;;
77055;SDS011;67471;44.918;8.614;2024-01-11T17:30:29;33.20;;;19.42;;
77055;SDS011;67471;44.918;8.614;2024-01-11T17:33:33;39.30;;;20.20;;
77055;SDS011;67471;44.918;8.614;2024-01-11T17:36:37;37.60;;;21.63;;
77055;SDS011;67471;44.918;8.614;2024-01-11T17:39:40;37.08;;;21.17;;
77055;SDS011;67471;44.918;8.614;2024-01-11T17:42:44;40.33;;;20.92;;
77055;SDS011;67471;44.918;8.614;2024-01-11T17:45:47;40.28;;;22.48;;
77055;SDS011;67471;44.918;8.614;2024-01-11T17:48:54;40.63;;;23.38;;
77055;SDS011;67471;44.918;8.614;2024-01-11T17:51:58;45.50;;;25.45;;
77055;SDS011;67471;44.918;8.614;2024-01-11T17:55:02;46.80;;;25.45;;
77055;SDS011;67471;44.918;8.614;2024-01-11T17:58:07;62.00;;;31.02;;
77055;SDS011;67471;44.918;8.614;2024-01-11T18:01:18;46.28;;;26.35;;